sensor_id;sensor_type;location;lat;lon;timestamp;P1;durP1;ratioP1;P2;durP2;ratioP2
18510;SDS011;9384;48.044;11.616;2022-12-07T00:01:21;22.17;;;11.80;;
18510;SDS011;9384;48.044;11.616;2022-12-07T00:03:51;22.50;;;11.40;;
18510;SDS011;9384;48.044;11.616;2022-12-07T00:06:20;23.00;;;11.97;;
18510;SDS011;9384;48.044;11.616;2022-12-07T00:08:47;25.13;;;11.83;;
18510;SDS011;9384;48.044;11.616;2022-12-07T00:11:15;21.23;;;11.30;;
18510;SDS011;9384;48.044;11.616;2022-12-07T00:13:45;18.27;;;10.80;;
18510;SDS011;9384;48.044;11.616;2022-12-07T00:16:14;19.47;;;11.80;;
18510;SDS011;9384;48.044;11.616;2022-12-07T00:18:42;21.13;;;10.63;;
18510;SDS011;9384;48.044;11.616;2022-12-07T00:21:10;18.90;;;11.47;;
18510;SDS011;9384;48.044;11.616;2022-12-07T00:23:39;15.50;;;10.10;;
18510;SDS011;9384;48.044;11.616;2022-12-07T00:26:08;19.47;;;10.77;;
18510;SDS011;9384;48.044;11.616;2022-12-07T00:28:36;22.17;;;11.20;;
18510;SDS011;9384;48.044;11.616;2022-12-07T00:31:05;20.73;;;10.93;;
18510;SDS011;9384;48.044;11.616;2022-12-07T00:33:34;19.37;;;10.27;;
18510;SDS011;9384;48.044;11.616;2022-12-07T00:36:02;21.10;;;10.80;;
18510;SDS011;9384;48.044;11.616;2022-12-07T00:38:32;19.20;;;9.70;;
18510;SDS011;9384;48.044;11.616;2022-12-07T00:41:01;20.17;;;10.60;;
18510;SDS011;9384;48.044;11.616;2022-12-07T00:43:29;20.57;;;10.50;;
18510;SDS011;9384;48.044;11.616;2022-12-07T00:45:56;17.27;;;10.13;;
18510;SDS011;9384;48.044;11.616;2022-12-07T00:48:25;16.17;;;9.43;;
18510;SDS011;9384;48.044;11.616;2022-12-07T00:50:52;15.97;;;9.93;;
18510;SDS011;9384;48.044;11.616;2022-12-07T00:53:19;14.63;;;9.27;;
18510;SDS011;9384;48.044;11.616;2022-12-07T00:55:46;16.83;;;9.83;;
18510;SDS011;9384;48.044;11.616;2022-12-07T00:58:13;20.03;;;10.10;;
18510;SDS011;9384;48.044;11.616;2022-12-07T01:00:40;12.87;;;8.47;;
18510;SDS011;9384;48.044;11.616;2022-12-07T01:03:09;13.77;;;9.27;;
18510;SDS011;9384;48.044;11.616;2022-12-07T01:05:39;16.63;;;10.23;;
18510;SDS011;9384;48.044;11.616;2022-12-07T01:08:06;16.07;;;9.77;;
18510;SDS011;9384;48.044;11.616;2022-12-07T01:10:34;16.50;;;9.03;;
18510;SDS011;9384;48.044;11.616;2022-12-07T01:13:01;16.03;;;9.50;;
18510;SDS011;9384;48.044;11.616;2022-12-07T01:15:28;13.90;;;8.57;;
18510;SDS011;9384;48.044;11.616;2022-12-07T01:17:54;15.67;;;9.13;;
18510;SDS011;9384;48.044;11.616;2022-12-07T01:20:21;15.40;;;9.33;;
18510;SDS011;9384;48.044;11.616;2022-12-07T01:22:50;12.90;;;9.37;;
18510;SDS011;9384;48.044;11.616;2022-12-07T01:25:17;12.47;;;8.87;;
18510;SDS011;9384;48.044;11.616;2022-12-07T01:27:44;14.53;;;8.60;;
18510;SDS011;9384;48.044;11.616;2022-12-07T01:30:11;14.87;;;8.30;;
18510;SDS011;9384;48.044;11.616;2022-12-07T01:32:39;13.33;;;8.50;;
18510;SDS011;9384;48.044;11.616;2022-12-07T01:35:06;13.87;;;8.67;;
18510;SDS011;9384;48.044;11.616;2022-12-07T01:37:34;16.87;;;8.70;;
18510;SDS011;9384;48.044;11.616;2022-12-07T01:40:03;12.93;;;8.10;;
18510;SDS011;9384;48.044;11.616;2022-12-07T01:42:32;12.93;;;8.30;;
18510;SDS011;9384;48.044;11.616;2022-12-07T01:45:31;14.20;;;9.07;;
18510;SDS011;9384;48.044;11.616;2022-12-07T01:48:04;14.73;;;8.70;;
18510;SDS011;9384;48.044;11.616;2022-12-07T01:50:33;11.93;;;8.30;;
18510;SDS011;9384;48.044;11.616;2022-12-07T01:53:01;11.33;;;7.83;;
18510;SDS011;9384;48.044;11.616;2022-12-07T01:55:31;10.87;;;7.43;;
18510;SDS011;9384;48.044;11.616;2022-12-07T01:57:59;10.27;;;7.50;;
18510;SDS011;9384;48.044;11.616;2022-12-07T02:00:26;11.80;;;7.73;;
18510;SDS011;9384;48.044;11.616;2022-12-07T02:02:53;12.93;;;8.37;;
18510;SDS011;9384;48.044;11.616;2022-12-07T02:05:23;11.33;;;8.17;;
18510;SDS011;9384;48.044;11.616;2022-12-07T02:07:51;12.77;;;8.57;;
18510;SDS011;9384;48.044;11.616;2022-12-07T02:10:21;13.47;;;8.40;;
18510;SDS011;9384;48.044;11.616;2022-12-07T02:12:52;12.10;;;7.83;;
18510;SDS011;9384;48.044;11.616;2022-12-07T02:15:22;13.23;;;7.97;;
18510;SDS011;9384;48.044;11.616;2022-12-07T02:17:58;13.77;;;8.17;;
18510;SDS011;9384;48.044;11.616;2022-12-07T02:20:31;13.17;;;8.53;;
18510;SDS011;9384;48.044;11.616;2022-12-07T02:23:18;12.20;;;8.33;;
18510;SDS011;9384;48.044;11.616;2022-12-07T02:26:09;11.53;;;7.23;;
18510;SDS011;9384;48.044;11.616;2022-12-07T02:29:08;11.90;;;7.97;;
18510;SDS011;9384;48.044;11.616;2022-12-07T02:31:41;13.37;;;7.80;;
18510;SDS011;9384;48.044;11.616;2022-12-07T02:34:12;16.07;;;8.37;;
18510;SDS011;9384;48.044;11.616;2022-12-07T02:36:46;13.17;;;8.10;;
18510;SDS011;9384;48.044;11.616;2022-12-07T02:39:18;13.70;;;8.30;;
18510;SDS011;9384;48.044;11.616;2022-12-07T02:41:51;12.73;;;8.60;;
18510;SDS011;9384;48.044;11.616;2022-12-07T02:44:23;12.00;;;8.33;;
18510;SDS011;9384;48.044;11.616;2022-12-07T02:46:54;13.83;;;8.73;;
18510;SDS011;9384;48.044;11.616;2022-12-07T02:49:24;13.50;;;8.97;;
18510;SDS011;9384;48.044;11.616;2022-12-07T02:51:52;16.40;;;9.47;;
18510;SDS011;9384;48.044;11.616;2022-12-07T02:54:20;14.53;;;9.13;;
18510;SDS011;9384;48.044;11.616;2022-12-07T02:56:48;13.53;;;8.93;;
18510;SDS011;9384;48.044;11.616;2022-12-07T02:59:22;18.37;;;9.97;;
18510;SDS011;9384;48.044;11.616;2022-12-07T03:02:01;15.20;;;9.27;;
18510;SDS011;9384;48.044;11.616;2022-12-07T03:04:41;14.73;;;9.67;;
18510;SDS011;9384;48.044;11.616;2022-12-07T03:07:15;16.53;;;9.03;;
18510;SDS011;9384;48.044;11.616;2022-12-07T03:09:51;18.07;;;9.57;;
18510;SDS011;9384;48.044;11.616;2022-12-07T03:12:28;16.77;;;10.17;;
18510;SDS011;9384;48.044;11.616;2022-12-07T03:15:03;16.23;;;9.87;;
18510;SDS011;9384;48.044;11.616;2022-12-07T03:17:37;15.07;;;8.87;;
18510;SDS011;9384;48.044;11.616;2022-12-07T03:20:07;17.27;;;9.17;;
18510;SDS011;9384;48.044;11.616;2022-12-07T03:22:38;14.93;;;9.40;;
18510;SDS011;9384;48.044;11.616;2022-12-07T03:25:08;19.33;;;10.70;;
18510;SDS011;9384;48.044;11.616;2022-12-07T03:27:38;16.57;;;9.57;;
18510;SDS011;9384;48.044;11.616;2022-12-07T03:30:10;18.23;;;9.70;;
18510;SDS011;9384;48.044;11.616;2022-12-07T03:32:42;17.70;;;9.27;;
18510;SDS011;9384;48.044;11.616;2022-12-07T03:38:35;17.23;;;9.63;;
18510;SDS011;9384;48.044;11.616;2022-12-07T03:41:08;17.27;;;9.73;;
18510;SDS011;9384;48.044;11.616;2022-12-07T03:43:38;19.80;;;10.03;;
18510;SDS011;9384;48.044;11.616;2022-12-07T03:46:09;14.93;;;9.23;;
18510;SDS011;9384;48.044;11.616;2022-12-07T03:48:46;14.97;;;8.97;;
18510;SDS011;9384;48.044;11.616;2022-12-07T03:51:24;15.43;;;9.33;;
18510;SDS011;9384;48.044;11.616;2022-12-07T03:53:58;19.13;;;10.00;;
18510;SDS011;9384;48.044;11.616;2022-12-07T03:56:29;14.13;;;9.33;;
18510;SDS011;9384;48.044;11.616;2022-12-07T03:58:56;15.03;;;9.60;;
18510;SDS011;9384;48.044;11.616;2022-12-07T04:01:24;16.63;;;9.43;;
18510;SDS011;9384;48.044;11.616;2022-12-07T04:03:51;17.73;;;9.50;;
18510;SDS011;9384;48.044;11.616;2022-12-07T04:06:18;14.03;;;8.30;;
18510;SDS011;9384;48.044;11.616;2022-12-07T04:08:45;14.87;;;9.40;;
18510;SDS011;9384;48.044;11.616;2022-12-07T04:11:12;16.73;;;9.60;;
18510;SDS011;9384;48.044;11.616;2022-12-07T04:13:39;17.00;;;9.63;;
18510;SDS011;9384;48.044;11.616;2022-12-07T04:16:25;14.33;;;9.63;;
18510;SDS011;9384;48.044;11.616;2022-12-07T04:18:58;18.40;;;10.57;;
18510;SDS011;9384;48.044;11.616;2022-12-07T04:21:24;16.83;;;9.90;;
18510;SDS011;9384;48.044;11.616;2022-12-07T04:23:51;18.43;;;10.20;;
18510;SDS011;9384;48.044;11.616;2022-12-07T04:26:18;15.67;;;9.90;;
18510;SDS011;9384;48.044;11.616;2022-12-07T04:28:45;19.63;;;11.13;;
18510;SDS011;9384;48.044;11.616;2022-12-07T04:31:12;19.37;;;11.23;;
18510;SDS011;9384;48.044;11.616;2022-12-07T04:33:40;19.47;;;11.40;;
18510;SDS011;9384;48.044;11.616;2022-12-07T04:36:07;16.43;;;10.20;;
18510;SDS011;9384;48.044;11.616;2022-12-07T04:38:34;22.37;;;11.43;;
18510;SDS011;9384;48.044;11.616;2022-12-07T04:41:03;17.00;;;9.97;;
18510;SDS011;9384;48.044;11.616;2022-12-07T04:43:31;20.43;;;10.97;;
18510;SDS011;9384;48.044;11.616;2022-12-07T04:45:58;19.03;;;10.30;;
18510;SDS011;9384;48.044;11.616;2022-12-07T04:48:25;20.07;;;11.07;;
18510;SDS011;9384;48.044;11.616;2022-12-07T04:50:53;18.23;;;10.30;;
18510;SDS011;9384;48.044;11.616;2022-12-07T04:53:20;19.93;;;10.90;;
18510;SDS011;9384;48.044;11.616;2022-12-07T04:55:48;19.07;;;11.17;;
18510;SDS011;9384;48.044;11.616;2022-12-07T04:58:15;23.63;;;12.63;;
18510;SDS011;9384;48.044;11.616;2022-12-07T05:00:42;20.03;;;10.77;;
18510;SDS011;9384;48.044;11.616;2022-12-07T05:03:08;18.97;;;11.13;;
18510;SDS011;9384;48.044;11.616;2022-12-07T05:05:35;20.73;;;11.23;;
18510;SDS011;9384;48.044;11.616;2022-12-07T05:08:03;19.43;;;10.93;;
18510;SDS011;9384;48.044;11.616;2022-12-07T05:10:30;20.53;;;11.73;;
18510;SDS011;9384;48.044;11.616;2022-12-07T05:12:57;21.13;;;11.60;;
18510;SDS011;9384;48.044;11.616;2022-12-07T05:15:24;19.87;;;11.93;;
18510;SDS011;9384;48.044;11.616;2022-12-07T05:17:51;22.67;;;11.43;;
18510;SDS011;9384;48.044;11.616;2022-12-07T05:20:18;20.17;;;11.07;;
18510;SDS011;9384;48.044;11.616;2022-12-07T05:22:45;20.73;;;11.63;;
18510;SDS011;9384;48.044;11.616;2022-12-07T05:25:13;23.77;;;12.53;;
18510;SDS011;9384;48.044;11.616;2022-12-07T05:27:40;25.50;;;12.27;;
18510;SDS011;9384;48.044;11.616;2022-12-07T05:30:07;20.97;;;11.83;;
18510;SDS011;9384;48.044;11.616;2022-12-07T05:32:34;20.47;;;11.60;;
18510;SDS011;9384;48.044;11.616;2022-12-07T05:35:01;21.83;;;12.30;;
18510;SDS011;9384;48.044;11.616;2022-12-07T05:37:28;17.20;;;10.50;;
18510;SDS011;9384;48.044;11.616;2022-12-07T05:39:55;22.33;;;11.67;;
18510;SDS011;9384;48.044;11.616;2022-12-07T05:42:23;19.30;;;10.60;;
18510;SDS011;9384;48.044;11.616;2022-12-07T05:44:50;24.40;;;12.10;;
18510;SDS011;9384;48.044;11.616;2022-12-07T05:47:17;21.23;;;11.33;;
18510;SDS011;9384;48.044;11.616;2022-12-07T05:49:44;22.17;;;11.80;;
18510;SDS011;9384;48.044;11.616;2022-12-07T05:52:11;22.63;;;11.67;;
18510;SDS011;9384;48.044;11.616;2022-12-07T05:54:37;20.57;;;11.47;;
18510;SDS011;9384;48.044;11.616;2022-12-07T05:57:04;17.90;;;11.13;;
18510;SDS011;9384;48.044;11.616;2022-12-07T05:59:32;19.30;;;10.23;;
18510;SDS011;9384;48.044;11.616;2022-12-07T06:01:59;18.33;;;10.43;;
18510;SDS011;9384;48.044;11.616;2022-12-07T06:04:29;22.57;;;10.97;;
18510;SDS011;9384;48.044;11.616;2022-12-07T06:06:57;18.03;;;10.57;;
18510;SDS011;9384;48.044;11.616;2022-12-07T06:09:24;21.87;;;11.50;;
18510;SDS011;9384;48.044;11.616;2022-12-07T06:11:52;19.33;;;10.70;;
18510;SDS011;9384;48.044;11.616;2022-12-07T06:14:38;17.73;;;9.63;;
18510;SDS011;9384;48.044;11.616;2022-12-07T06:17:06;21.27;;;10.93;;
18510;SDS011;9384;48.044;11.616;2022-12-07T06:19:33;21.03;;;11.37;;
18510;SDS011;9384;48.044;11.616;2022-12-07T06:22:00;18.60;;;10.43;;
18510;SDS011;9384;48.044;11.616;2022-12-07T06:24:29;17.90;;;10.93;;
18510;SDS011;9384;48.044;11.616;2022-12-07T06:26:56;19.57;;;10.90;;
18510;SDS011;9384;48.044;11.616;2022-12-07T06:29:23;23.03;;;11.67;;
18510;SDS011;9384;48.044;11.616;2022-12-07T06:31:52;19.40;;;10.97;;
18510;SDS011;9384;48.044;11.616;2022-12-07T06:34:20;20.53;;;10.80;;
18510;SDS011;9384;48.044;11.616;2022-12-07T06:36:48;17.27;;;10.60;;
18510;SDS011;9384;48.044;11.616;2022-12-07T06:39:16;16.20;;;9.70;;
18510;SDS011;9384;48.044;11.616;2022-12-07T06:41:44;18.37;;;10.93;;
18510;SDS011;9384;48.044;11.616;2022-12-07T06:44:11;17.47;;;10.70;;
18510;SDS011;9384;48.044;11.616;2022-12-07T06:46:38;18.60;;;10.30;;
18510;SDS011;9384;48.044;11.616;2022-12-07T06:49:06;19.73;;;10.17;;
18510;SDS011;9384;48.044;11.616;2022-12-07T06:51:33;20.33;;;11.80;;
18510;SDS011;9384;48.044;11.616;2022-12-07T06:54:01;18.67;;;10.47;;
18510;SDS011;9384;48.044;11.616;2022-12-07T06:56:28;23.00;;;11.07;;
18510;SDS011;9384;48.044;11.616;2022-12-07T06:58:55;19.53;;;10.47;;
18510;SDS011;9384;48.044;11.616;2022-12-07T07:01:22;19.33;;;10.97;;
18510;SDS011;9384;48.044;11.616;2022-12-07T07:03:49;22.23;;;10.73;;
18510;SDS011;9384;48.044;11.616;2022-12-07T07:06:17;17.57;;;10.97;;
18510;SDS011;9384;48.044;11.616;2022-12-07T07:08:44;19.77;;;11.10;;
18510;SDS011;9384;48.044;11.616;2022-12-07T07:11:11;19.10;;;10.40;;
18510;SDS011;9384;48.044;11.616;2022-12-07T07:13:38;19.77;;;10.43;;
18510;SDS011;9384;48.044;11.616;2022-12-07T07:16:05;19.90;;;10.70;;
18510;SDS011;9384;48.044;11.616;2022-12-07T07:18:33;21.47;;;11.60;;
18510;SDS011;9384;48.044;11.616;2022-12-07T07:20:59;16.40;;;10.20;;
18510;SDS011;9384;48.044;11.616;2022-12-07T07:23:28;16.77;;;9.83;;
18510;SDS011;9384;48.044;11.616;2022-12-07T07:25:55;19.37;;;11.03;;
18510;SDS011;9384;48.044;11.616;2022-12-07T07:28:22;19.70;;;10.87;;
18510;SDS011;9384;48.044;11.616;2022-12-07T07:30:49;17.83;;;10.53;;
18510;SDS011;9384;48.044;11.616;2022-12-07T07:33:16;20.60;;;10.83;;
18510;SDS011;9384;48.044;11.616;2022-12-07T07:35:43;20.10;;;11.40;;
18510;SDS011;9384;48.044;11.616;2022-12-07T07:38:10;20.50;;;11.47;;
18510;SDS011;9384;48.044;11.616;2022-12-07T07:40:38;21.73;;;12.03;;
18510;SDS011;9384;48.044;11.616;2022-12-07T07:43:05;19.40;;;11.20;;
18510;SDS011;9384;48.044;11.616;2022-12-07T07:45:31;15.50;;;10.43;;
18510;SDS011;9384;48.044;11.616;2022-12-07T07:47:58;20.53;;;11.17;;
18510;SDS011;9384;48.044;11.616;2022-12-07T07:50:25;15.83;;;10.27;;
18510;SDS011;9384;48.044;11.616;2022-12-07T07:52:52;16.77;;;10.93;;
18510;SDS011;9384;48.044;11.616;2022-12-07T07:55:19;16.83;;;10.30;;
18510;SDS011;9384;48.044;11.616;2022-12-07T07:57:47;15.33;;;9.67;;
18510;SDS011;9384;48.044;11.616;2022-12-07T08:00:14;15.00;;;9.87;;
18510;SDS011;9384;48.044;11.616;2022-12-07T08:02:42;16.80;;;9.23;;
18510;SDS011;9384;48.044;11.616;2022-12-07T08:05:09;18.20;;;9.97;;
18510;SDS011;9384;48.044;11.616;2022-12-07T08:07:37;16.97;;;9.30;;
18510;SDS011;9384;48.044;11.616;2022-12-07T08:10:04;14.43;;;9.17;;
18510;SDS011;9384;48.044;11.616;2022-12-07T08:12:35;17.10;;;9.97;;
18510;SDS011;9384;48.044;11.616;2022-12-07T08:15:25;19.70;;;10.43;;
18510;SDS011;9384;48.044;11.616;2022-12-07T08:17:53;16.17;;;9.93;;
18510;SDS011;9384;48.044;11.616;2022-12-07T08:20:20;16.63;;;10.17;;
18510;SDS011;9384;48.044;11.616;2022-12-07T08:22:47;16.37;;;10.10;;
18510;SDS011;9384;48.044;11.616;2022-12-07T08:25:14;15.93;;;10.30;;
18510;SDS011;9384;48.044;11.616;2022-12-07T08:27:41;16.63;;;10.77;;
18510;SDS011;9384;48.044;11.616;2022-12-07T08:30:08;18.13;;;10.70;;
18510;SDS011;9384;48.044;11.616;2022-12-07T08:32:37;21.17;;;11.53;;
18510;SDS011;9384;48.044;11.616;2022-12-07T08:35:04;17.03;;;9.73;;
18510;SDS011;9384;48.044;11.616;2022-12-07T08:37:31;16.17;;;9.83;;
18510;SDS011;9384;48.044;11.616;2022-12-07T08:39:58;17.07;;;10.10;;
18510;SDS011;9384;48.044;11.616;2022-12-07T08:42:25;17.20;;;9.53;;
18510;SDS011;9384;48.044;11.616;2022-12-07T08:44:54;14.50;;;9.30;;
18510;SDS011;9384;48.044;11.616;2022-12-07T08:47:22;19.93;;;11.60;;
18510;SDS011;9384;48.044;11.616;2022-12-07T08:49:52;17.60;;;10.20;;
18510;SDS011;9384;48.044;11.616;2022-12-07T08:52:19;22.33;;;11.63;;
18510;SDS011;9384;48.044;11.616;2022-12-07T08:54:46;17.47;;;9.87;;
18510;SDS011;9384;48.044;11.616;2022-12-07T08:57:13;19.40;;;11.03;;
18510;SDS011;9384;48.044;11.616;2022-12-07T08:59:40;19.77;;;10.93;;
18510;SDS011;9384;48.044;11.616;2022-12-07T09:02:07;19.93;;;10.73;;
18510;SDS011;9384;48.044;11.616;2022-12-07T09:04:35;17.23;;;11.03;;
18510;SDS011;9384;48.044;11.616;2022-12-07T09:07:03;17.70;;;10.13;;
18510;SDS011;9384;48.044;11.616;2022-12-07T09:09:30;16.53;;;10.13;;
18510;SDS011;9384;48.044;11.616;2022-12-07T09:11:57;18.90;;;10.57;;
18510;SDS011;9384;48.044;11.616;2022-12-07T09:14:23;17.93;;;10.07;;
18510;SDS011;9384;48.044;11.616;2022-12-07T09:16:50;19.00;;;10.33;;
18510;SDS011;9384;48.044;11.616;2022-12-07T09:19:17;12.83;;;9.30;;
18510;SDS011;9384;48.044;11.616;2022-12-07T09:21:44;16.40;;;10.00;;
18510;SDS011;9384;48.044;11.616;2022-12-07T09:24:12;16.30;;;10.30;;
18510;SDS011;9384;48.044;11.616;2022-12-07T09:26:39;19.20;;;11.20;;
18510;SDS011;9384;48.044;11.616;2022-12-07T09:29:06;17.90;;;10.57;;
18510;SDS011;9384;48.044;11.616;2022-12-07T09:31:35;16.87;;;10.60;;
18510;SDS011;9384;48.044;11.616;2022-12-07T09:34:02;17.37;;;10.07;;
18510;SDS011;9384;48.044;11.616;2022-12-07T09:36:29;17.70;;;10.20;;
18510;SDS011;9384;48.044;11.616;2022-12-07T09:38:56;14.43;;;9.43;;
18510;SDS011;9384;48.044;11.616;2022-12-07T09:41:25;14.93;;;9.03;;
18510;SDS011;9384;48.044;11.616;2022-12-07T09:43:55;15.33;;;9.63;;
18510;SDS011;9384;48.044;11.616;2022-12-07T09:46:28;16.20;;;9.40;;
18510;SDS011;9384;48.044;11.616;2022-12-07T09:49:00;15.60;;;9.50;;
18510;SDS011;9384;48.044;11.616;2022-12-07T09:51:28;14.03;;;9.00;;
18510;SDS011;9384;48.044;11.616;2022-12-07T09:53:56;14.97;;;8.43;;
18510;SDS011;9384;48.044;11.616;2022-12-07T09:56:28;12.90;;;8.63;;
18510;SDS011;9384;48.044;11.616;2022-12-07T09:58:58;14.63;;;8.37;;
18510;SDS011;9384;48.044;11.616;2022-12-07T10:01:27;11.00;;;7.87;;
18510;SDS011;9384;48.044;11.616;2022-12-07T10:04:00;11.97;;;7.93;;
18510;SDS011;9384;48.044;11.616;2022-12-07T10:06:35;14.60;;;9.27;;
18510;SDS011;9384;48.044;11.616;2022-12-07T10:09:07;14.33;;;8.63;;
18510;SDS011;9384;48.044;11.616;2022-12-07T10:11:44;13.57;;;9.30;;
18510;SDS011;9384;48.044;11.616;2022-12-07T10:14:24;15.77;;;9.30;;
18510;SDS011;9384;48.044;11.616;2022-12-07T10:16:54;13.53;;;8.40;;
18510;SDS011;9384;48.044;11.616;2022-12-07T10:19:27;18.10;;;9.80;;
18510;SDS011;9384;48.044;11.616;2022-12-07T10:22:09;15.37;;;10.27;;
18510;SDS011;9384;48.044;11.616;2022-12-07T10:24:38;13.33;;;8.83;;
18510;SDS011;9384;48.044;11.616;2022-12-07T10:27:17;17.13;;;9.57;;
18510;SDS011;9384;48.044;11.616;2022-12-07T10:29:49;15.30;;;9.73;;
18510;SDS011;9384;48.044;11.616;2022-12-07T10:32:28;15.53;;;10.07;;
18510;SDS011;9384;48.044;11.616;2022-12-07T10:37:45;15.07;;;9.53;;
18510;SDS011;9384;48.044;11.616;2022-12-07T10:40:23;17.50;;;10.27;;
18510;SDS011;9384;48.044;11.616;2022-12-07T10:43:01;14.13;;;9.33;;
18510;SDS011;9384;48.044;11.616;2022-12-07T10:45:43;14.87;;;9.30;;
18510;SDS011;9384;48.044;11.616;2022-12-07T10:48:30;13.67;;;9.17;;
18510;SDS011;9384;48.044;11.616;2022-12-07T10:51:05;14.13;;;9.10;;
18510;SDS011;9384;48.044;11.616;2022-12-07T10:53:48;18.73;;;10.70;;
18510;SDS011;9384;48.044;11.616;2022-12-07T10:56:29;17.43;;;9.87;;
18510;SDS011;9384;48.044;11.616;2022-12-07T11:02:12;12.23;;;8.17;;
18510;SDS011;9384;48.044;11.616;2022-12-07T11:04:58;14.77;;;8.47;;
18510;SDS011;9384;48.044;11.616;2022-12-07T11:07:36;16.60;;;9.17;;
18510;SDS011;9384;48.044;11.616;2022-12-07T11:10:13;14.20;;;9.20;;
18510;SDS011;9384;48.044;11.616;2022-12-07T11:12:47;15.30;;;9.87;;
18510;SDS011;9384;48.044;11.616;2022-12-07T11:15:24;15.00;;;9.33;;
18510;SDS011;9384;48.044;11.616;2022-12-07T11:17:56;14.07;;;9.03;;
18510;SDS011;9384;48.044;11.616;2022-12-07T11:20:34;14.50;;;10.10;;
18510;SDS011;9384;48.044;11.616;2022-12-07T11:23:11;19.07;;;10.53;;
18510;SDS011;9384;48.044;11.616;2022-12-07T11:25:52;13.00;;;9.07;;
18510;SDS011;9384;48.044;11.616;2022-12-07T11:28:30;15.50;;;9.07;;
18510;SDS011;9384;48.044;11.616;2022-12-07T11:31:13;13.20;;;8.93;;
18510;SDS011;9384;48.044;11.616;2022-12-07T11:33:45;11.10;;;7.83;;
18510;SDS011;9384;48.044;11.616;2022-12-07T11:36:29;10.90;;;7.80;;
18510;SDS011;9384;48.044;11.616;2022-12-07T11:39:01;11.80;;;8.03;;
18510;SDS011;9384;48.044;11.616;2022-12-07T11:41:30;10.73;;;7.63;;
18510;SDS011;9384;48.044;11.616;2022-12-07T11:44:01;13.23;;;8.37;;
18510;SDS011;9384;48.044;11.616;2022-12-07T11:46:44;14.17;;;8.77;;
18510;SDS011;9384;48.044;11.616;2022-12-07T11:49:15;11.83;;;7.80;;
18510;SDS011;9384;48.044;11.616;2022-12-07T11:51:51;11.83;;;8.60;;
18510;SDS011;9384;48.044;11.616;2022-12-07T11:54:21;12.07;;;8.13;;
18510;SDS011;9384;48.044;11.616;2022-12-07T11:56:53;14.47;;;8.33;;
18510;SDS011;9384;48.044;11.616;2022-12-07T11:59:23;11.40;;;7.87;;
18510;SDS011;9384;48.044;11.616;2022-12-07T12:01:58;15.60;;;9.77;;
18510;SDS011;9384;48.044;11.616;2022-12-07T12:04:32;11.80;;;7.97;;
18510;SDS011;9384;48.044;11.616;2022-12-07T12:07:06;13.30;;;8.10;;
18510;SDS011;9384;48.044;11.616;2022-12-07T12:09:34;11.90;;;7.80;;
18510;SDS011;9384;48.044;11.616;2022-12-07T12:12:20;13.43;;;8.57;;
18510;SDS011;9384;48.044;11.616;2022-12-07T12:14:59;13.97;;;8.07;;
18510;SDS011;9384;48.044;11.616;2022-12-07T12:17:59;11.97;;;7.43;;
18510;SDS011;9384;48.044;11.616;2022-12-07T12:21:06;13.20;;;8.70;;
18510;SDS011;9384;48.044;11.616;2022-12-07T12:23:37;12.33;;;7.87;;
18510;SDS011;9384;48.044;11.616;2022-12-07T12:26:13;15.13;;;8.43;;
18510;SDS011;9384;48.044;11.616;2022-12-07T12:28:49;15.20;;;9.33;;
18510;SDS011;9384;48.044;11.616;2022-12-07T12:31:37;12.57;;;8.73;;
18510;SDS011;9384;48.044;11.616;2022-12-07T12:36:59;11.00;;;7.80;;
18510;SDS011;9384;48.044;11.616;2022-12-07T12:39:26;12.87;;;8.47;;
18510;SDS011;9384;48.044;11.616;2022-12-07T12:41:57;12.70;;;7.83;;
18510;SDS011;9384;48.044;11.616;2022-12-07T12:47:41;11.13;;;7.90;;
18510;SDS011;9384;48.044;11.616;2022-12-07T12:50:34;13.57;;;9.13;;
18510;SDS011;9384;48.044;11.616;2022-12-07T12:53:03;12.37;;;8.77;;
18510;SDS011;9384;48.044;11.616;2022-12-07T12:58:49;11.93;;;8.70;;
18510;SDS011;9384;48.044;11.616;2022-12-07T13:01:38;13.63;;;8.00;;
18510;SDS011;9384;48.044;11.616;2022-12-07T13:10:09;12.60;;;8.03;;
18510;SDS011;9384;48.044;11.616;2022-12-07T13:13:01;14.53;;;9.03;;
18510;SDS011;9384;48.044;11.616;2022-12-07T13:15:31;12.33;;;8.07;;
18510;SDS011;9384;48.044;11.616;2022-12-07T13:18:04;14.80;;;8.23;;
18510;SDS011;9384;48.044;11.616;2022-12-07T13:20:50;14.03;;;8.63;;
18510;SDS011;9384;48.044;11.616;2022-12-07T13:23:21;12.03;;;8.10;;
18510;SDS011;9384;48.044;11.616;2022-12-07T13:26:09;12.67;;;7.93;;
18510;SDS011;9384;48.044;11.616;2022-12-07T13:28:42;11.27;;;7.97;;
18510;SDS011;9384;48.044;11.616;2022-12-07T13:31:23;11.40;;;8.00;;
18510;SDS011;9384;48.044;11.616;2022-12-07T13:36:57;11.20;;;7.57;;
18510;SDS011;9384;48.044;11.616;2022-12-07T13:39:26;9.50;;;7.87;;
18510;SDS011;9384;48.044;11.616;2022-12-07T13:41:56;10.80;;;7.17;;
18510;SDS011;9384;48.044;11.616;2022-12-07T13:44:27;11.37;;;7.93;;
18510;SDS011;9384;48.044;11.616;2022-12-07T13:47:00;9.70;;;6.50;;
18510;SDS011;9384;48.044;11.616;2022-12-07T13:49:36;11.40;;;7.57;;
18510;SDS011;9384;48.044;11.616;2022-12-07T13:52:15;15.93;;;7.23;;
18510;SDS011;9384;48.044;11.616;2022-12-07T13:54:44;9.93;;;7.33;;
18510;SDS011;9384;48.044;11.616;2022-12-07T13:57:13;9.93;;;7.07;;
18510;SDS011;9384;48.044;11.616;2022-12-07T13:59:41;9.23;;;6.67;;
18510;SDS011;9384;48.044;11.616;2022-12-07T14:02:17;9.20;;;6.70;;
18510;SDS011;9384;48.044;11.616;2022-12-07T14:04:46;10.20;;;7.43;;
18510;SDS011;9384;48.044;11.616;2022-12-07T14:07:21;10.30;;;7.33;;
18510;SDS011;9384;48.044;11.616;2022-12-07T14:09:57;9.67;;;6.57;;
18510;SDS011;9384;48.044;11.616;2022-12-07T14:12:27;10.97;;;7.30;;
18510;SDS011;9384;48.044;11.616;2022-12-07T14:14:55;11.40;;;7.50;;
18510;SDS011;9384;48.044;11.616;2022-12-07T14:17:23;14.73;;;7.43;;
18510;SDS011;9384;48.044;11.616;2022-12-07T14:19:51;9.53;;;6.70;;
18510;SDS011;9384;48.044;11.616;2022-12-07T14:22:22;11.90;;;7.63;;
18510;SDS011;9384;48.044;11.616;2022-12-07T14:24:57;10.70;;;7.10;;
18510;SDS011;9384;48.044;11.616;2022-12-07T14:27:31;12.57;;;8.27;;
18510;SDS011;9384;48.044;11.616;2022-12-07T14:29:59;14.73;;;7.77;;
18510;SDS011;9384;48.044;11.616;2022-12-07T14:32:27;16.77;;;9.80;;
18510;SDS011;9384;48.044;11.616;2022-12-07T14:34:56;14.90;;;9.33;;
18510;SDS011;9384;48.044;11.616;2022-12-07T14:37:28;19.37;;;10.90;;
18510;SDS011;9384;48.044;11.616;2022-12-07T14:39:56;17.40;;;9.97;;
18510;SDS011;9384;48.044;11.616;2022-12-07T14:42:24;18.07;;;11.53;;
18510;SDS011;9384;48.044;11.616;2022-12-07T14:44:56;15.00;;;9.00;;
18510;SDS011;9384;48.044;11.616;2022-12-07T14:47:23;13.33;;;8.83;;
18510;SDS011;9384;48.044;11.616;2022-12-07T14:49:50;13.83;;;8.30;;
18510;SDS011;9384;48.044;11.616;2022-12-07T14:52:18;16.23;;;9.40;;
18510;SDS011;9384;48.044;11.616;2022-12-07T14:54:48;14.00;;;9.20;;
18510;SDS011;9384;48.044;11.616;2022-12-07T14:57:14;15.27;;;8.87;;
18510;SDS011;9384;48.044;11.616;2022-12-07T14:59:43;15.73;;;8.90;;
18510;SDS011;9384;48.044;11.616;2022-12-07T15:02:10;13.93;;;9.10;;
18510;SDS011;9384;48.044;11.616;2022-12-07T15:04:39;15.47;;;8.50;;
18510;SDS011;9384;48.044;11.616;2022-12-07T15:07:09;14.20;;;9.47;;
18510;SDS011;9384;48.044;11.616;2022-12-07T15:09:40;18.40;;;9.97;;
18510;SDS011;9384;48.044;11.616;2022-12-07T15:12:07;18.27;;;10.87;;
18510;SDS011;9384;48.044;11.616;2022-12-07T15:14:34;19.20;;;10.97;;
18510;SDS011;9384;48.044;11.616;2022-12-07T15:17:02;17.50;;;11.10;;